sensor_id;sensor_type;location;lat;lon;timestamp;temperature;humidity
2387;DHT22;49473;50.772;8.768;2022-10-17T00:00:41;12.60;99.90
2387;DHT22;49473;50.772;8.768;2022-10-17T00:03:08;12.70;99.90
2387;DHT22;49473;50.772;8.768;2022-10-17T00:05:38;12.60;99.90
2387;DHT22;49473;50.772;8.768;2022-10-17T00:08:05;12.70;99.90
2387;DHT22;49473;50.772;8.768;2022-10-17T00:10:33;12.60;99.90
2387;DHT22;49473;50.772;8.768;2022-10-17T00:13:00;12.50;99.90
2387;DHT22;49473;50.772;8.768;2022-10-17T00:15:27;12.50;99.90
2387;DHT22;49473;50.772;8.768;2022-10-17T00:17:54;12.60;99.90
2387;DHT22;49473;50.772;8.768;2022-10-17T00:20:21;12.60;99.90
2387;DHT22;49473;50.772;8.768;2022-10-17T00:22:48;12.60;99.90
2387;DHT22;49473;50.772;8.768;2022-10-17T00:25:15;12.70;99.90
2387;DHT22;49473;50.772;8.768;2022-10-17T00:27:44;12.60;99.90
2387;DHT22;49473;50.772;8.768;2022-10-17T00:30:12;12.70;99.90
2387;DHT22;49473;50.772;8.768;2022-10-17T00:32:39;12.80;99.90
2387;DHT22;49473;50.772;8.768;2022-10-17T00:35:07;12.70;99.90
2387;DHT22;49473;50.772;8.768;2022-10-17T00:37:34;12.70;99.90
2387;DHT22;49473;50.772;8.768;2022-10-17T00:40:01;12.70;99.90
2387;DHT22;49473;50.772;8.768;2022-10-17T00:42:27;12.70;99.90
2387;DHT22;49473;50.772;8.768;2022-10-17T00:45:05;12.70;99.90
2387;DHT22;49473;50.772;8.768;2022-10-17T00:47:32;12.70;99.90
2387;DHT22;49473;50.772;8.768;2022-10-17T00:50:01;12.70;99.90
2387;DHT22;49473;50.772;8.768;2022-10-17T00:52:29;12.70;99.90
2387;DHT22;49473;50.772;8.768;2022-10-17T00:55:00;12.60;99.90
2387;DHT22;49473;50.772;8.768;2022-10-17T00:57:29;12.60;99.90
2387;DHT22;49473;50.772;8.768;2022-10-17T00:59:58;12.70;99.90
2387;DHT22;49473;50.772;8.768;2022-10-17T01:02:27;12.70;99.90
2387;DHT22;49473;50.772;8.768;2022-10-17T01:04:56;12.70;99.90
2387;DHT22;49473;50.772;8.768;2022-10-17T01:07:24;12.70;99.90
2387;DHT22;49473;50.772;8.768;2022-10-17T01:09:52;12.70;99.90
2387;DHT22;49473;50.772;8.768;2022-10-17T01:12:21;12.70;99.90
2387;DHT22;49473;50.772;8.768;2022-10-17T01:15:09;12.70;99.90
2387;DHT22;49473;50.772;8.768;2022-10-17T01:17:45;12.70;99.90
2387;DHT22;49473;50.772;8.768;2022-10-17T01:20:44;12.80;99.90
2387;DHT22;49473;50.772;8.768;2022-10-17T01:23:36;12.80;99.90
2387;DHT22;49473;50.772;8.768;2022-10-17T01:26:15;12.80;99.90
2387;DHT22;49473;50.772;8.768;2022-10-17T01:29:04;12.70;99.90
2387;DHT22;49473;50.772;8.768;2022-10-17T01:31:37;12.70;99.90
2387;DHT22;49473;50.772;8.768;2022-10-17T01:34:09;12.60;99.90
2387;DHT22;49473;50.772;8.768;2022-10-17T01:36:42;12.40;99.90
2387;DHT22;49473;50.772;8.768;2022-10-17T01:39:16;12.30;99.90
2387;DHT22;49473;50.772;8.768;2022-10-17T01:41:49;12.30;99.90
2387;DHT22;49473;50.772;8.768;2022-10-17T01:44:20;12.30;99.90
2387;DHT22;49473;50.772;8.768;2022-10-17T01:46:53;12.20;99.90
2387;DHT22;49473;50.772;8.768;2022-10-17T01:49:25;12.10;99.90
2387;DHT22;49473;50.772;8.768;2022-10-17T01:51:56;12.10;99.90
2387;DHT22;49473;50.772;8.768;2022-10-17T01:54:30;12.00;99.90
2387;DHT22;49473;50.772;8.768;2022-10-17T01:57:00;12.00;99.90
2387;DHT22;49473;50.772;8.768;2022-10-17T01:59:32;11.90;99.90
2387;DHT22;49473;50.772;8.768;2022-10-17T02:02:02;11.90;99.90
2387;DHT22;49473;50.772;8.768;2022-10-17T02:04:29;12.00;99.90
2387;DHT22;49473;50.772;8.768;2022-10-17T02:06:56;12.00;99.90
2387;DHT22;49473;50.772;8.768;2022-10-17T02:09:24;12.00;99.90
2387;DHT22;49473;50.772;8.768;2022-10-17T02:12:10;12.00;99.90
2387;DHT22;49473;50.772;8.768;2022-10-17T02:14:48;12.00;99.90
2387;DHT22;49473;50.772;8.768;2022-10-17T02:17:25;12.00;99.90
2387;DHT22;49473;50.772;8.768;2022-10-17T02:20:01;12.00;99.90
2387;DHT22;49473;50.772;8.768;2022-10-17T02:22:38;12.00;99.90
2387;DHT22;49473;50.772;8.768;2022-10-17T02:25:09;12.10;99.90
2387;DHT22;49473;50.772;8.768;2022-10-17T02:27:43;12.00;99.90
2387;DHT22;49473;50.772;8.768;2022-10-17T02:30:20;12.00;99.90
2387;DHT22;49473;50.772;8.768;2022-10-17T02:32:53;12.00;99.90
2387;DHT22;49473;50.772;8.768;2022-10-17T02:35:23;11.90;99.90
2387;DHT22;49473;50.772;8.768;2022-10-17T02:37:51;11.80;99.90
2387;DHT22;49473;50.772;8.768;2022-10-17T02:40:20;11.80;99.90
2387;DHT22;49473;50.772;8.768;2022-10-17T02:42:48;11.90;99.90
2387;DHT22;49473;50.772;8.768;2022-10-17T02:45:16;11.90;99.90
2387;DHT22;49473;50.772;8.768;2022-10-17T02:47:52;11.90;99.90
2387;DHT22;49473;50.772;8.768;2022-10-17T02:50:26;12.00;99.90
2387;DHT22;49473;50.772;8.768;2022-10-17T02:52:58;12.00;99.90
2387;DHT22;49473;50.772;8.768;2022-10-17T02:55:29;12.00;99.90
2387;DHT22;49473;50.772;8.768;2022-10-17T02:58:01;12.00;99.90
2387;DHT22;49473;50.772;8.768;2022-10-17T03:00:30;12.10;99.90
2387;DHT22;49473;50.772;8.768;2022-10-17T03:02:58;12.00;99.90
2387;DHT22;49473;50.772;8.768;2022-10-17T03:05:28;12.00;99.90
2387;DHT22;49473;50.772;8.768;2022-10-17T03:07:55;12.10;99.90
2387;DHT22;49473;50.772;8.768;2022-10-17T03:10:22;12.00;99.90
2387;DHT22;49473;50.772;8.768;2022-10-17T03:12:49;11.90;99.90
2387;DHT22;49473;50.772;8.768;2022-10-17T03:15:16;11.70;99.90
2387;DHT22;49473;50.772;8.768;2022-10-17T03:17:43;11.60;99.90
2387;DHT22;49473;50.772;8.768;2022-10-17T03:20:11;11.60;99.90
2387;DHT22;49473;50.772;8.768;2022-10-17T03:22:38;11.60;99.90
2387;DHT22;49473;50.772;8.768;2022-10-17T03:25:05;11.60;99.90
2387;DHT22;49473;50.772;8.768;2022-10-17T03:27:31;11.50;99.90
2387;DHT22;49473;50.772;8.768;2022-10-17T03:29:58;11.60;99.90
2387;DHT22;49473;50.772;8.768;2022-10-17T03:32:25;11.50;99.90
2387;DHT22;49473;50.772;8.768;2022-10-17T03:34:52;11.60;99.90
2387;DHT22;49473;50.772;8.768;2022-10-17T03:37:20;11.50;99.90
2387;DHT22;49473;50.772;8.768;2022-10-17T03:39:47;11.60;99.90
2387;DHT22;49473;50.772;8.768;2022-10-17T03:42:13;11.50;99.90
2387;DHT22;49473;50.772;8.768;2022-10-17T03:44:40;11.50;99.90
2387;DHT22;49473;50.772;8.768;2022-10-17T03:47:07;11.50;99.90
2387;DHT22;49473;50.772;8.768;2022-10-17T03:49:34;11.50;99.90
2387;DHT22;49473;50.772;8.768;2022-10-17T03:52:01;11.50;99.90
2387;DHT22;49473;50.772;8.768;2022-10-17T03:54:29;11.60;99.90
2387;DHT22;49473;50.772;8.768;2022-10-17T03:56:56;11.60;99.90
2387;DHT22;49473;50.772;8.768;2022-10-17T03:59:23;11.70;99.90
2387;DHT22;49473;50.772;8.768;2022-10-17T04:01:50;11.70;99.90
2387;DHT22;49473;50.772;8.768;2022-10-17T04:04:16;11.70;99.90
2387;DHT22;49473;50.772;8.768;2022-10-17T04:06:43;11.70;99.90
2387;DHT22;49473;50.772;8.768;2022-10-17T04:09:10;11.60;99.90
2387;DHT22;49473;50.772;8.768;2022-10-17T04:11:38;11.50;99.90
2387;DHT22;49473;50.772;8.768;2022-10-17T04:14:06;11.40;99.90
2387;DHT22;49473;50.772;8.768;2022-10-17T04:16:33;11.40;99.90
2387;DHT22;49473;50.772;8.768;2022-10-17T04:18:59;11.40;99.90
2387;DHT22;49473;50.772;8.768;2022-10-17T04:21:27;11.30;99.90
2387;DHT22;49473;50.772;8.768;2022-10-17T04:23:55;11.30;99.90
2387;DHT22;49473;50.772;8.768;2022-10-17T04:26:23;11.20;99.90
2387;DHT22;49473;50.772;8.768;2022-10-17T04:28:51;11.20;99.90
2387;DHT22;49473;50.772;8.768;2022-10-17T04:31:18;11.20;99.90
2387;DHT22;49473;50.772;8.768;2022-10-17T04:33:46;11.20;99.90
2387;DHT22;49473;50.772;8.768;2022-10-17T04:36:14;11.20;99.90
2387;DHT22;49473;50.772;8.768;2022-10-17T04:38:42;11.20;99.90
2387;DHT22;49473;50.772;8.768;2022-10-17T04:41:10;11.30;99.90
2387;DHT22;49473;50.772;8.768;2022-10-17T04:43:38;11.20;99.90
2387;DHT22;49473;50.772;8.768;2022-10-17T04:46:08;11.30;99.90
2387;DHT22;49473;50.772;8.768;2022-10-17T04:48:37;11.20;99.90
2387;DHT22;49473;50.772;8.768;2022-10-17T04:51:06;11.30;99.90
2387;DHT22;49473;50.772;8.768;2022-10-17T04:53:34;11.30;99.90
2387;DHT22;49473;50.772;8.768;2022-10-17T04:56:06;11.20;99.90
2387;DHT22;49473;50.772;8.768;2022-10-17T04:58:33;11.20;99.90
2387;DHT22;49473;50.772;8.768;2022-10-17T05:01:04;11.20;99.90
2387;DHT22;49473;50.772;8.768;2022-10-17T05:03:32;11.30;99.90
2387;DHT22;49473;50.772;8.768;2022-10-17T05:06:03;11.30;99.90
2387;DHT22;49473;50.772;8.768;2022-10-17T05:08:30;11.30;99.90
2387;DHT22;49473;50.772;8.768;2022-10-17T05:10:57;11.30;99.90
2387;DHT22;49473;50.772;8.768;2022-10-17T05:13:24;11.30;99.90
2387;DHT22;49473;50.772;8.768;2022-10-17T05:15:51;11.30;99.90
2387;DHT22;49473;50.772;8.768;2022-10-17T05:18:18;11.30;99.90
2387;DHT22;49473;50.772;8.768;2022-10-17T05:20:46;11.30;99.90
2387;DHT22;49473;50.772;8.768;2022-10-17T05:23:13;11.30;99.90
2387;DHT22;49473;50.772;8.768;2022-10-17T05:25:39;11.30;99.90
2387;DHT22;49473;50.772;8.768;2022-10-17T05:28:06;11.40;99.90
2387;DHT22;49473;50.772;8.768;2022-10-17T05:30:33;11.40;99.90
2387;DHT22;49473;50.772;8.768;2022-10-17T05:33:01;11.40;99.90
2387;DHT22;49473;50.772;8.768;2022-10-17T05:35:28;11.50;99.90
2387;DHT22;49473;50.772;8.768;2022-10-17T05:37:57;11.50;99.90
2387;DHT22;49473;50.772;8.768;2022-10-17T05:40:24;11.50;99.90
2387;DHT22;49473;50.772;8.768;2022-10-17T05:42:51;11.60;99.90
2387;DHT22;49473;50.772;8.768;2022-10-17T05:45:18;11.60;99.90
2387;DHT22;49473;50.772;8.768;2022-10-17T05:47:45;11.60;99.90
2387;DHT22;49473;50.772;8.768;2022-10-17T05:50:11;11.70;99.90
2387;DHT22;49473;50.772;8.768;2022-10-17T05:52:38;11.50;99.90
2387;DHT22;49473;50.772;8.768;2022-10-17T05:55:08;11.50;99.90
2387;DHT22;49473;50.772;8.768;2022-10-17T05:57:34;11.40;99.90
2387;DHT22;49473;50.772;8.768;2022-10-17T06:00:01;11.30;99.90
2387;DHT22;49473;50.772;8.768;2022-10-17T06:02:29;11.20;99.90
2387;DHT22;49473;50.772;8.768;2022-10-17T06:04:56;11.20;99.90
2387;DHT22;49473;50.772;8.768;2022-10-17T06:07:23;11.10;99.90
2387;DHT22;49473;50.772;8.768;2022-10-17T06:09:49;11.10;99.90
2387;DHT22;49473;50.772;8.768;2022-10-17T06:12:18;11.10;99.90
2387;DHT22;49473;50.772;8.768;2022-10-17T06:14:44;11.10;99.90
2387;DHT22;49473;50.772;8.768;2022-10-17T06:17:11;11.20;99.90
2387;DHT22;49473;50.772;8.768;2022-10-17T06:19:38;11.20;99.90
2387;DHT22;49473;50.772;8.768;2022-10-17T06:22:05;11.20;99.90
2387;DHT22;49473;50.772;8.768;2022-10-17T06:24:32;11.20;99.90
2387;DHT22;49473;50.772;8.768;2022-10-17T06:26:59;11.20;99.90
2387;DHT22;49473;50.772;8.768;2022-10-17T06:29:27;11.20;99.90
2387;DHT22;49473;50.772;8.768;2022-10-17T06:31:54;11.20;99.90
2387;DHT22;49473;50.772;8.768;2022-10-17T06:34:21;11.30;99.90
2387;DHT22;49473;50.772;8.768;2022-10-17T06:36:47;11.40;99.90
2387;DHT22;49473;50.772;8.768;2022-10-17T06:39:14;11.50;99.90
2387;DHT22;49473;50.772;8.768;2022-10-17T06:41:41;11.60;99.90
2387;DHT22;49473;50.772;8.768;2022-10-17T06:44:09;11.70;99.90
2387;DHT22;49473;50.772;8.768;2022-10-17T06:46:38;11.80;99.90
2387;DHT22;49473;50.772;8.768;2022-10-17T06:49:07;11.80;99.90
2387;DHT22;49473;50.772;8.768;2022-10-17T06:51:35;11.80;99.90
2387;DHT22;49473;50.772;8.768;2022-10-17T06:54:03;11.80;99.90
2387;DHT22;49473;50.772;8.768;2022-10-17T06:56:29;11.90;99.90
2387;DHT22;49473;50.772;8.768;2022-10-17T06:58:56;12.00;99.90
2387;DHT22;49473;50.772;8.768;2022-10-17T07:01:23;12.10;99.90
2387;DHT22;49473;50.772;8.768;2022-10-17T07:03:52;12.40;99.90
2387;DHT22;49473;50.772;8.768;2022-10-17T07:06:19;12.40;99.90
2387;DHT22;49473;50.772;8.768;2022-10-17T07:08:48;12.60;99.90
2387;DHT22;49473;50.772;8.768;2022-10-17T07:11:18;12.70;99.90
2387;DHT22;49473;50.772;8.768;2022-10-17T07:13:46;12.90;99.90
2387;DHT22;49473;50.772;8.768;2022-10-17T07:16:13;13.00;99.90
2387;DHT22;49473;50.772;8.768;2022-10-17T07:18:41;13.20;99.90
2387;DHT22;49473;50.772;8.768;2022-10-17T07:21:09;13.40;99.90
2387;DHT22;49473;50.772;8.768;2022-10-17T07:23:36;13.50;99.90
2387;DHT22;49473;50.772;8.768;2022-10-17T07:26:06;13.60;99.90
2387;DHT22;49473;50.772;8.768;2022-10-17T07:28:33;13.70;99.90
2387;DHT22;49473;50.772;8.768;2022-10-17T07:31:05;13.90;99.90
2387;DHT22;49473;50.772;8.768;2022-10-17T07:33:32;14.00;99.90
2387;DHT22;49473;50.772;8.768;2022-10-17T07:35:59;14.10;99.90
2387;DHT22;49473;50.772;8.768;2022-10-17T07:38:28;14.20;99.90
2387;DHT22;49473;50.772;8.768;2022-10-17T07:40:54;14.30;99.90
2387;DHT22;49473;50.772;8.768;2022-10-17T07:43:22;14.40;99.90
2387;DHT22;49473;50.772;8.768;2022-10-17T07:45:49;14.50;99.90
2387;DHT22;49473;50.772;8.768;2022-10-17T07:48:16;14.60;99.90
2387;DHT22;49473;50.772;8.768;2022-10-17T07:50:43;14.60;99.90
2387;DHT22;49473;50.772;8.768;2022-10-17T07:53:09;14.70;99.90
2387;DHT22;49473;50.772;8.768;2022-10-17T07:55:38;14.80;99.90
2387;DHT22;49473;50.772;8.768;2022-10-17T07:58:06;14.90;99.90
2387;DHT22;49473;50.772;8.768;2022-10-17T08:00:33;15.00;99.90
2387;DHT22;49473;50.772;8.768;2022-10-17T08:03:00;15.10;99.90
2387;DHT22;49473;50.772;8.768;2022-10-17T08:05:28;15.20;99.90
2387;DHT22;49473;50.772;8.768;2022-10-17T08:07:54;15.30;99.90
2387;DHT22;49473;50.772;8.768;2022-10-17T08:10:22;15.40;99.90
2387;DHT22;49473;50.772;8.768;2022-10-17T08:12:55;15.50;99.90
2387;DHT22;49473;50.772;8.768;2022-10-17T08:15:23;15.70;99.90
2387;DHT22;49473;50.772;8.768;2022-10-17T08:17:50;15.80;99.90
2387;DHT22;49473;50.772;8.768;2022-10-17T08:20:18;15.90;99.90
2387;DHT22;49473;50.772;8.768;2022-10-17T08:22:50;16.00;99.90
2387;DHT22;49473;50.772;8.768;2022-10-17T08:25:17;16.20;99.90
2387;DHT22;49473;50.772;8.768;2022-10-17T08:27:44;16.40;99.90
2387;DHT22;49473;50.772;8.768;2022-10-17T08:30:13;16.60;99.90
2387;DHT22;49473;50.772;8.768;2022-10-17T08:32:39;16.70;99.90
2387;DHT22;49473;50.772;8.768;2022-10-17T08:35:07;16.70;99.90
2387;DHT22;49473;50.772;8.768;2022-10-17T08:37:34;16.90;99.90
2387;DHT22;49473;50.772;8.768;2022-10-17T08:40:00;17.10;99.90
2387;DHT22;49473;50.772;8.768;2022-10-17T08:42:44;17.30;99.90
2387;DHT22;49473;50.772;8.768;2022-10-17T08:45:22;17.70;99.90
2387;DHT22;49473;50.772;8.768;2022-10-17T08:47:56;18.00;99.90
2387;DHT22;49473;50.772;8.768;2022-10-17T08:50:29;18.40;99.90
2387;DHT22;49473;50.772;8.768;2022-10-17T08:53:03;18.80;99.90
2387;DHT22;49473;50.772;8.768;2022-10-17T08:55:35;19.30;99.90
2387;DHT22;49473;50.772;8.768;2022-10-17T08:58:03;20.00;99.90
2387;DHT22;49473;50.772;8.768;2022-10-17T09:00:34;21.10;99.90
2387;DHT22;49473;50.772;8.768;2022-10-17T09:03:12;22.10;99.90
2387;DHT22;49473;50.772;8.768;2022-10-17T09:05:47;22.80;99.90
2387;DHT22;49473;50.772;8.768;2022-10-17T09:08:29;23.90;99.90
2387;DHT22;49473;50.772;8.768;2022-10-17T09:11:05;25.30;99.90
2387;DHT22;49473;50.772;8.768;2022-10-17T09:13:47;26.40;99.90
2387;DHT22;49473;50.772;8.768;2022-10-17T09:16:33;27.70;99.90
2387;DHT22;49473;50.772;8.768;2022-10-17T09:19:06;27.80;99.90
2387;DHT22;49473;50.772;8.768;2022-10-17T09:21:41;28.10;99.90
2387;DHT22;49473;50.772;8.768;2022-10-17T09:24:14;28.80;99.90
2387;DHT22;49473;50.772;8.768;2022-10-17T09:26:43;29.80;99.90
2387;DHT22;49473;50.772;8.768;2022-10-17T09:29:16;30.30;99.90
2387;DHT22;49473;50.772;8.768;2022-10-17T09:31:48;30.40;99.90
2387;DHT22;49473;50.772;8.768;2022-10-17T09:34:17;30.60;99.90
2387;DHT22;49473;50.772;8.768;2022-10-17T09:36:44;30.60;99.90
2387;DHT22;49473;50.772;8.768;2022-10-17T09:39:12;30.60;99.90
2387;DHT22;49473;50.772;8.768;2022-10-17T09:41:42;30.30;99.90
2387;DHT22;49473;50.772;8.768;2022-10-17T09:44:16;30.40;99.90
2387;DHT22;49473;50.772;8.768;2022-10-17T09:46:57;31.10;99.90
2387;DHT22;49473;50.772;8.768;2022-10-17T09:49:31;31.00;99.90
2387;DHT22;49473;50.772;8.768;2022-10-17T09:51:59;31.40;99.90
2387;DHT22;49473;50.772;8.768;2022-10-17T09:54:31;32.20;99.90
2387;DHT22;49473;50.772;8.768;2022-10-17T09:57:01;32.50;99.80
2387;DHT22;49473;50.772;8.768;2022-10-17T09:59:31;32.20;98.50
2387;DHT22;49473;50.772;8.768;2022-10-17T10:02:11;32.30;97.70
2387;DHT22;49473;50.772;8.768;2022-10-17T10:04:51;32.00;96.50
2387;DHT22;49473;50.772;8.768;2022-10-17T10:07:18;32.30;97.60
2387;DHT22;49473;50.772;8.768;2022-10-17T10:09:47;32.70;96.70
2387;DHT22;49473;50.772;8.768;2022-10-17T10:12:17;33.20;95.40
2387;DHT22;49473;50.772;8.768;2022-10-17T10:14:44;33.40;94.40
2387;DHT22;49473;50.772;8.768;2022-10-17T10:17:36;33.70;93.50
2387;DHT22;49473;50.772;8.768;2022-10-17T10:20:24;33.10;94.40
2387;DHT22;49473;50.772;8.768;2022-10-17T10:23:06;33.50;92.70
2387;DHT22;49473;50.772;8.768;2022-10-17T10:25:36;33.50;92.00
2387;DHT22;49473;50.772;8.768;2022-10-17T10:28:09;33.50;91.40
2387;DHT22;49473;50.772;8.768;2022-10-17T10:30:36;34.00;91.50
2387;DHT22;49473;50.772;8.768;2022-10-17T10:33:04;34.00;92.30
2387;DHT22;49473;50.772;8.768;2022-10-17T10:35:33;34.60;90.90
2387;DHT22;49473;50.772;8.768;2022-10-17T10:38:03;34.70;90.00
2387;DHT22;49473;50.772;8.768;2022-10-17T10:40:36;34.90;88.10
2387;DHT22;49473;50.772;8.768;2022-10-17T10:43:04;35.30;88.60
2387;DHT22;49473;50.772;8.768;2022-10-17T10:45:40;34.80;85.40
2387;DHT22;49473;50.772;8.768;2022-10-17T10:48:20;35.60;86.80
2387;DHT22;49473;50.772;8.768;2022-10-17T10:50:49;35.80;83.30
2387;DHT22;49473;50.772;8.768;2022-10-17T10:53:33;36.20;83.00
2387;DHT22;49473;50.772;8.768;2022-10-17T10:56:07;37.10;78.70
2387;DHT22;49473;50.772;8.768;2022-10-17T10:58:41;36.70;76.80
2387;DHT22;49473;50.772;8.768;2022-10-17T11:01:18;35.60;77.60
2387;DHT22;49473;50.772;8.768;2022-10-17T11:03:55;35.40;79.30
2387;DHT22;49473;50.772;8.768;2022-10-17T11:06:27;36.30;79.90
2387;DHT22;49473;50.772;8.768;2022-10-17T11:09:06;36.70;75.60
2387;DHT22;49473;50.772;8.768;2022-10-17T11:11:38;36.80;76.40
2387;DHT22;49473;50.772;8.768;2022-10-17T11:14:12;37.00;74.50
2387;DHT22;49473;50.772;8.768;2022-10-17T11:16:45;36.30;75.30
2387;DHT22;49473;50.772;8.768;2022-10-17T11:19:20;35.70;75.10
2387;DHT22;49473;50.772;8.768;2022-10-17T11:21:59;36.10;77.40
2387;DHT22;49473;50.772;8.768;2022-10-17T11:24:33;35.90;74.50
2387;DHT22;49473;50.772;8.768;2022-10-17T11:27:04;35.90;77.50
2387;DHT22;49473;50.772;8.768;2022-10-17T11:29:34;36.20;76.20
2387;DHT22;49473;50.772;8.768;2022-10-17T11:32:06;36.60;76.40
2387;DHT22;49473;50.772;8.768;2022-10-17T11:34:39;36.40;73.80
2387;DHT22;49473;50.772;8.768;2022-10-17T11:37:17;36.40;72.80
2387;DHT22;49473;50.772;8.768;2022-10-17T11:39:48;35.30;74.50
2387;DHT22;49473;50.772;8.768;2022-10-17T11:42:20;32.50;76.80
2387;DHT22;49473;50.772;8.768;2022-10-17T11:44:52;30.70;82.60
2387;DHT22;49473;50.772;8.768;2022-10-17T11:47:37;29.70;88.00
2387;DHT22;49473;50.772;8.768;2022-10-17T11:50:17;29.30;90.90
2387;DHT22;49473;50.772;8.768;2022-10-17T11:52:49;29.70;90.50
2387;DHT22;49473;50.772;8.768;2022-10-17T11:55:19;31.50;91.10
2387;DHT22;49473;50.772;8.768;2022-10-17T11:58:00;33.60;86.50
2387;DHT22;49473;50.772;8.768;2022-10-17T12:00:42;35.50;81.60
2387;DHT22;49473;50.772;8.768;2022-10-17T12:03:23;37.30;79.90
2387;DHT22;49473;50.772;8.768;2022-10-17T12:05:57;38.50;76.70
2387;DHT22;49473;50.772;8.768;2022-10-17T12:08:30;38.90;74.30
2387;DHT22;49473;50.772;8.768;2022-10-17T12:11:04;40.00;72.80
2387;DHT22;49473;50.772;8.768;2022-10-17T12:13:55;39.40;68.70
2387;DHT22;49473;50.772;8.768;2022-10-17T12:16:43;38.60;68.00
2387;DHT22;49473;50.772;8.768;2022-10-17T12:19:22;39.00;69.80
2387;DHT22;49473;50.772;8.768;2022-10-17T12:21:58;37.80;68.80
2387;DHT22;49473;50.772;8.768;2022-10-17T12:24:44;37.40;70.20
2387;DHT22;49473;50.772;8.768;2022-10-17T12:27:31;34.90;72.90
2387;DHT22;49473;50.772;8.768;2022-10-17T12:29:59;35.00;77.40
2387;DHT22;49473;50.772;8.768;2022-10-17T12:32:27;34.70;75.20
2387;DHT22;49473;50.772;8.768;2022-10-17T12:34:55;35.10;76.10
2387;DHT22;49473;50.772;8.768;2022-10-17T12:41:04;34.30;78.10
2387;DHT22;49473;50.772;8.768;2022-10-17T12:43:47;32.70;79.00
2387;DHT22;49473;50.772;8.768;2022-10-17T12:46:44;32.30;83.20
2387;DHT22;49473;50.772;8.768;2022-10-17T12:49:36;32.10;81.70
2387;DHT22;49473;50.772;8.768;2022-10-17T12:55:00;31.40;84.20
2387;DHT22;49473;50.772;8.768;2022-10-17T12:57:36;31.20;86.10
2387;DHT22;49473;50.772;8.768;2022-10-17T13:00:16;31.40;87.40
2387;DHT22;49473;50.772;8.768;2022-10-17T13:02:43;31.50;86.60
2387;DHT22;49473;50.772;8.768;2022-10-17T13:05:14;30.50;86.50
2387;DHT22;49473;50.772;8.768;2022-10-17T13:07:43;30.00;90.40
2387;DHT22;49473;50.772;8.768;2022-10-17T13:10:18;28.80;90.40
2387;DHT22;49473;50.772;8.768;2022-10-17T13:12:48;27.90;92.30
2387;DHT22;49473;50.772;8.768;2022-10-17T13:15:17;27.60;93.50
2387;DHT22;49473;50.772;8.768;2022-10-17T13:17:53;27.20;94.80
2387;DHT22;49473;50.772;8.768;2022-10-17T13:20:23;26.90;96.20
2387;DHT22;49473;50.772;8.768;2022-10-17T13:22:50;26.70;96.80
2387;DHT22;49473;50.772;8.768;2022-10-17T13:25:19;26.50;98.50
2387;DHT22;49473;50.772;8.768;2022-10-17T13:27:48;26.30;98.40
2387;DHT22;49473;50.772;8.768;2022-10-17T13:30:24;26.10;99.90
2387;DHT22;49473;50.772;8.768;2022-10-17T13:32:51;25.80;99.90
2387;DHT22;49473;50.772;8.768;2022-10-17T13:35:24;25.70;99.90
2387;DHT22;49473;50.772;8.768;2022-10-17T13:37:52;25.60;99.90
2387;DHT22;49473;50.772;8.768;2022-10-17T13:40:22;25.70;99.90
2387;DHT22;49473;50.772;8.768;2022-10-17T13:42:51;25.40;99.90
2387;DHT22;49473;50.772;8.768;2022-10-17T13:45:24;25.30;99.90
2387;DHT22;49473;50.772;8.768;2022-10-17T13:47:52;25.00;99.90
2387;DHT22;49473;50.772;8.768;2022-10-17T13:50:23;24.80;99.90
2387;DHT22;49473;50.772;8.768;2022-10-17T13:53:06;24.80;99.90
2387;DHT22;49473;50.772;8.768;2022-10-17T13:55:33;24.70;99.90
2387;DHT22;49473;50.772;8.768;2022-10-17T13:58:15;24.80;99.90
2387;DHT22;49473;50.772;8.768;2022-10-17T14:00:43;24.60;99.90
2387;DHT22;49473;50.772;8.768;2022-10-17T14:03:10;24.50;99.90
2387;DHT22;49473;50.772;8.768;2022-10-17T14:08:49;24.20;99.90
2387;DHT22;49473;50.772;8.768;2022-10-17T14:11:26;24.10;99.90
2387;DHT22;49473;50.772;8.768;2022-10-17T14:13:55;24.10;99.90
2387;DHT22;49473;50.772;8.768;2022-10-17T14:16:23;24.00;99.90
2387;DHT22;49473;50.772;8.768;2022-10-17T14:18:51;23.90;99.90
2387;DHT22;49473;50.772;8.768;2022-10-17T14:21:21;23.90;99.90
2387;DHT22;49473;50.772;8.768;2022-10-17T14:23:49;23.70;99.90
2387;DHT22;49473;50.772;8.768;2022-10-17T14:26:18;23.60;99.90
2387;DHT22;49473;50.772;8.768;2022-10-17T14:28:47;23.50;99.90
2387;DHT22;49473;50.772;8.768;2022-10-17T14:31:22;23.60;99.90
2387;DHT22;49473;50.772;8.768;2022-10-17T14:33:51;23.60;99.90
2387;DHT22;49473;50.772;8.768;2022-10-17T14:36:19;23.50;99.90
2387;DHT22;49473;50.772;8.768;2022-10-17T14:38:47;23.40;99.90
2387;DHT22;49473;50.772;8.768;2022-10-17T14:41:23;23.30;99.90
2387;DHT22;49473;50.772;8.768;2022-10-17T14:43:53;23.30;99.90
2387;DHT22;49473;50.772;8.768;2022-10-17T14:46:21;23.20;99.90
2387;DHT22;49473;50.772;8.768;2022-10-17T14:48:53;23.20;99.90
2387;DHT22;49473;50.772;8.768;2022-10-17T14:51:21;23.10;99.90
2387;DHT22;49473;50.772;8.768;2022-10-17T14:54:15;23.10;99.90
2387;DHT22;49473;50.772;8.768;2022-10-17T14:56:48;23.00;99.90
2387;DHT22;49473;50.772;8.768;2022-10-17T14:59:15;22.90;99.90
2387;DHT22;49473;50.772;8.768;2022-10-17T15:01:48;22.70;99.90
2387;DHT22;49473;50.772;8.768;2022-10-17T15:04:15;22.60;99.90
2387;DHT22;49473;50.772;8.768;2022-10-17T15:06:42;22.50;99.90
2387;DHT22;49473;50.772;8.768;2022-10-17T15:09:09;22.50;99.90
2387;DHT22;49473;50.772;8.768;2022-10-17T15:11:36;22.30;99.90
2387;DHT22;49473;50.772;8.768;2022-10-17T15:14:03;22.20;99.90
2387;DHT22;49473;50.772;8.768;2022-10-17T15:16:31;22.10;99.90
2387;DHT22;49473;50.772;8.768;2022-10-17T15:19:00;22.00;99.90
2387;DHT22;49473;50.772;8.768;2022-10-17T15:21:27;22.00;99.90
2387;DHT22;49473;50.772;8.768;2022-10-17T15:23:54;21.90;99.90
2387;DHT22;49473;50.772;8.768;2022-10-17T15:26:24;21.80;99.90
2387;DHT22;49473;50.772;8.768;2022-10-17T15:28:52;21.70;99.90
2387;DHT22;49473;50.772;8.768;2022-10-17T15:31:21;21.60;99.90
2387;DHT22;49473;50.772;8.768;2022-10-17T15:33:48;21.60;99.90
2387;DHT22;49473;50.772;8.768;2022-10-17T15:36:19;21.50;99.90
2387;DHT22;49473;50.772;8.768;2022-10-17T15:38:47;21.50;99.90
2387;DHT22;49473;50.772;8.768;2022-10-17T15:41:14;21.50;99.90
2387;DHT22;49473;50.772;8.768;2022-10-17T15:43:40;21.40;99.90
2387;DHT22;49473;50.772;8.768;2022-10-17T15:46:12;21.40;99.90
2387;DHT22;49473;50.772;8.768;2022-10-17T15:48:40;21.30;99.90
2387;DHT22;49473;50.772;8.768;2022-10-17T15:51:07;21.20;99.90
2387;DHT22;49473;50.772;8.768;2022-10-17T15:53:36;21.00;99.90
2387;DHT22;49473;50.772;8.768;2022-10-17T15:56:04;21.00;99.90
2387;DHT22;49473;50.772;8.768;2022-10-17T15:58:35;20.90;99.90
2387;DHT22;49473;50.772;8.768;2022-10-17T16:01:03;20.90;99.90
2387;DHT22;49473;50.772;8.768;2022-10-17T16:03:31;20.90;99.90
2387;DHT22;49473;50.772;8.768;2022-10-17T16:05:57;20.80;99.90
2387;DHT22;49473;50.772;8.768;2022-10-17T16:08:25;20.70;99.90
2387;DHT22;49473;50.772;8.768;2022-10-17T16:10:54;20.50;99.90
2387;DHT22;49473;50.772;8.768;2022-10-17T16:13:22;20.30;99.90
2387;DHT22;49473;50.772;8.768;2022-10-17T16:15:49;20.30;99.90